createdAt,value
2023-05-20T00:00:45.483Z,3.33
2023-05-20T00:03:16.956Z,3.90
2023-05-20T00:05:47.056Z,3.70
2023-05-20T00:08:21.729Z,6.97
2023-05-20T00:10:54.787Z,5.43
2023-05-20T00:13:25.971Z,2.77
2023-05-20T00:15:55.553Z,2.53
2023-05-20T00:18:26.272Z,4.47
2023-05-20T00:20:56.351Z,2.50
2023-05-20T00:23:25.066Z,4.43
2023-05-20T00:25:59.811Z,5.87
2023-05-20T00:28:31.738Z,5.33
2023-05-20T00:31:02.346Z,3.27
2023-05-20T00:33:31.962Z,3.67
2023-05-20T00:36:01.818Z,4.10
2023-05-20T00:38:38.316Z,3.50
2023-05-20T00:41:14.028Z,4.97
2023-05-20T00:43:42.949Z,5.37
2023-05-20T00:46:12.663Z,4.80
2023-05-20T00:48:45.777Z,5.53
2023-05-20T00:51:15.615Z,3.83
2023-05-20T00:53:46.635Z,3.27
2023-05-20T00:56:19.142Z,5.87
2023-05-20T00:58:48.660Z,5.47
2023-05-20T01:01:20.590Z,4.10
2023-05-20T01:03:50.549Z,4.27
2023-05-20T01:06:19.740Z,4.07
2023-05-20T01:08:49.179Z,5.13
2023-05-20T01:11:31.624Z,3.93
2023-05-20T01:14:04.937Z,3.77
2023-05-20T01:16:37.070Z,7.93
2023-05-20T01:19:22.559Z,5.47
2023-05-20T01:21:54.735Z,4.27
2023-05-20T01:24:27.929Z,4.10
2023-05-20T01:27:00.453Z,3.00
2023-05-20T01:29:32.818Z,3.60
2023-05-20T01:32:05.186Z,9.53
2023-05-20T01:34:35.013Z,7.43
2023-05-20T01:37:06.340Z,5.03
2023-05-20T01:39:41.683Z,3.30
2023-05-20T01:42:11.669Z,3.80
2023-05-20T01:44:41.737Z,6.73
2023-05-20T01:47:12.942Z,5.63
2023-05-20T01:49:41.480Z,4.40
2023-05-20T01:52:10.269Z,7.80
2023-05-20T01:54:40.580Z,3.03
2023-05-20T01:57:08.831Z,7.37
2023-05-20T01:59:37.434Z,3.70
2023-05-20T02:02:06.646Z,4.27
2023-05-20T02:04:35.491Z,5.23
2023-05-20T02:07:04.446Z,3.63
2023-05-20T02:09:32.935Z,3.83
2023-05-20T02:12:02.241Z,6.37
2023-05-20T02:14:30.891Z,5.30
2023-05-20T02:16:59.702Z,4.47
2023-05-20T02:19:33.671Z,3.63
2023-05-20T02:22:01.565Z,4.77
2023-05-20T02:24:29.904Z,4.03
2023-05-20T02:26:59.287Z,5.37
2023-05-20T02:31:51.111Z,5.50
2023-05-20T02:34:22.900Z,4.63
2023-05-20T02:36:51.818Z,5.20
2023-05-20T02:39:19.657Z,5.20
2023-05-20T02:41:48.005Z,4.57
2023-05-20T02:44:17.174Z,4.63
2023-05-20T02:46:45.730Z,5.27
2023-05-20T02:49:17.687Z,3.73
2023-05-20T02:51:45.876Z,5.03
2023-05-20T02:54:13.707Z,8.90
2023-05-20T02:56:41.534Z,5.27
2023-05-20T02:59:09.471Z,4.43
2023-05-20T03:01:37.832Z,6.53
2023-05-20T03:04:06.518Z,4.10
2023-05-20T03:06:36.375Z,3.90
2023-05-20T03:09:04.345Z,6.40
2023-05-20T03:11:32.416Z,6.03
2023-05-20T03:14:01.778Z,4.67
2023-05-20T03:16:33.699Z,4.70
2023-05-20T03:19:02.107Z,4.97
2023-05-20T03:21:31.405Z,4.77
2023-05-20T03:24:00.780Z,4.20
2023-05-20T03:26:30.156Z,5.97
2023-05-20T03:28:58.213Z,3.63
2023-05-20T03:31:28.901Z,5.07
2023-05-20T03:33:58.469Z,5.47
2023-05-20T03:36:26.559Z,6.23
2023-05-20T03:38:54.589Z,6.43
2023-05-20T03:41:26.197Z,4.37
2023-05-20T03:43:55.006Z,7.97
2023-05-20T03:46:23.216Z,4.13
2023-05-20T03:48:51.883Z,5.23
2023-05-20T03:51:19.832Z,5.70
2023-05-20T03:53:48.029Z,5.80
2023-05-20T03:56:16.979Z,5.53
2023-05-20T03:58:48.576Z,3.70
2023-05-20T04:01:18.337Z,5.23
2023-05-20T04:03:46.732Z,6.10
2023-05-20T04:06:15.587Z,5.97
2023-05-20T04:08:44.947Z,4.07
2023-05-20T04:11:17.104Z,4.23
2023-05-20T04:13:46.549Z,6.47
2023-05-20T04:16:15.070Z,4.40
2023-05-20T04:18:46.101Z,4.50
2023-05-20T04:21:15.360Z,5.00
2023-05-20T04:23:46.498Z,5.00
2023-05-20T04:26:16.827Z,8.33
2023-05-20T04:28:49.163Z,4.13
2023-05-20T04:31:19.564Z,4.50
2023-05-20T04:33:51.701Z,7.70
2023-05-20T04:36:21.692Z,5.07
2023-05-20T04:38:50.440Z,4.43
2023-05-20T04:41:19.704Z,4.37
2023-05-20T04:43:50.540Z,4.93
2023-05-20T04:46:21.185Z,5.50
2023-05-20T04:48:49.422Z,5.87
2023-05-20T04:51:18.052Z,6.70
2023-05-20T04:53:46.275Z,4.67
2023-05-20T04:56:15.806Z,4.77
2023-05-20T04:58:46.330Z,7.93
2023-05-20T05:01:16.016Z,6.37
2023-05-20T05:03:44.122Z,4.77
2023-05-20T05:06:13.126Z,5.50
2023-05-20T05:08:41.642Z,4.97
2023-05-20T05:11:13.406Z,5.30
2023-05-20T05:13:47.181Z,4.73
2023-05-20T05:16:17.735Z,5.50
2023-05-20T05:18:47.483Z,4.50
2023-05-20T05:21:16.367Z,4.63
2023-05-20T05:23:44.375Z,8.97
2023-05-20T05:26:12.713Z,6.43
2023-05-20T05:28:43.552Z,6.90
2023-05-20T05:31:12.790Z,5.20
2023-05-20T05:33:42.021Z,7.97
2023-05-20T05:36:10.225Z,5.07
2023-05-20T05:38:39.635Z,5.13
2023-05-20T05:41:07.589Z,4.93
2023-05-20T05:43:37.586Z,5.73
2023-05-20T05:46:10.741Z,9.97
2023-05-20T05:48:41.890Z,6.53
2023-05-20T05:51:14.243Z,9.80
2023-05-20T05:53:43.632Z,7.60
2023-05-20T05:56:12.051Z,6.67
2023-05-20T05:58:40.726Z,5.40
2023-05-20T06:01:11.569Z,6.30
2023-05-20T06:03:40.154Z,6.27
2023-05-20T06:06:13.409Z,6.27
2023-05-20T06:08:42.456Z,5.50
2023-05-20T06:11:10.941Z,5.97
2023-05-20T06:13:42.937Z,5.77
2023-05-20T06:16:12.123Z,6.23
2023-05-20T06:18:43.348Z,5.10
2023-05-20T06:21:13.480Z,7.30
2023-05-20T06:23:41.320Z,7.73
2023-05-20T06:26:09.825Z,5.67
2023-05-20T06:28:38.625Z,7.57
2023-05-20T06:31:10.595Z,6.10
2023-05-20T06:33:41.824Z,9.33
2023-05-20T06:36:10.142Z,7.37
2023-05-20T06:38:41.648Z,6.23
2023-05-20T06:41:10.961Z,5.87
2023-05-20T06:44:30.444Z,6.13
2023-05-20T06:47:27.075Z,7.23
2023-05-20T06:49:57.575Z,7.50
2023-05-20T06:52:27.401Z,7.27
2023-05-20T06:54:59.471Z,7.60
2023-05-20T06:57:29.263Z,6.73
2023-05-20T07:00:00.787Z,8.47
2023-05-20T07:02:30.250Z,7.03
2023-05-20T07:04:59.607Z,8.57
2023-05-20T07:07:37.744Z,9.80
2023-05-20T07:10:10.323Z,10.40
2023-05-20T07:13:01.785Z,7.10
2023-05-20T07:15:38.976Z,6.60
2023-05-20T07:18:12.999Z,8.87
2023-05-20T07:20:47.458Z,7.40
2023-05-20T07:23:18.772Z,6.93
2023-05-20T07:26:13.896Z,6.73
2023-05-20T07:28:46.889Z,8.03
2023-05-20T07:31:16.590Z,6.53
2023-05-20T07:34:11.427Z,6.87
2023-05-20T07:36:40.391Z,6.50
2023-05-20T07:39:13.382Z,8.90
2023-05-20T07:41:49.857Z,8.73
2023-05-20T07:44:20.232Z,7.90
2023-05-20T07:46:49.661Z,7.27
2023-05-20T07:49:25.613Z,7.87
2023-05-20T07:51:54.145Z,8.07
2023-05-20T07:54:34.613Z,7.53
2023-05-20T07:57:07.767Z,9.57
2023-05-20T07:59:39.041Z,7.07
2023-05-20T08:02:11.259Z,6.93
2023-05-20T08:04:40.128Z,7.33
2023-05-20T08:07:11.543Z,10.07
2023-05-20T08:09:42.538Z,7.13
2023-05-20T08:12:16.756Z,7.77
2023-05-20T08:14:46.679Z,9.50
2023-05-20T08:17:19.929Z,7.57
2023-05-20T08:19:51.243Z,13.17
2023-05-20T08:22:24.423Z,6.47
2023-05-20T08:27:43.810Z,8.43
2023-05-20T08:30:15.362Z,9.10
2023-05-20T08:32:58.721Z,10.00
2023-05-20T08:35:42.078Z,8.10
2023-05-20T08:38:22.566Z,10.00
2023-05-20T08:41:13.921Z,10.00
2023-05-20T08:43:55.601Z,8.17
2023-05-20T08:46:29.457Z,9.03
2023-05-20T08:49:04.434Z,8.20
2023-05-20T08:51:35.692Z,8.60
2023-05-20T08:54:08.467Z,8.33
2023-05-20T08:56:42.180Z,8.23
2023-05-20T08:59:19.284Z,8.40
2023-05-20T09:01:50.973Z,8.27
2023-05-20T09:04:30.920Z,8.97
2023-05-20T09:07:17.492Z,7.80
2023-05-20T09:09:51.364Z,10.20
2023-05-20T09:12:26.242Z,7.40
2023-05-20T09:14:59.220Z,11.20
2023-05-20T09:17:32.164Z,8.70
2023-05-20T09:20:04.674Z,8.13
2023-05-20T09:22:43.407Z,8.07
2023-05-20T09:25:33.994Z,8.77
2023-05-20T09:28:07.136Z,8.00
2023-05-20T09:31:06.159Z,10.67
2023-05-20T09:33:58.016Z,7.97
2023-05-20T09:36:57.665Z,8.47
2023-05-20T09:39:37.034Z,10.23
2023-05-20T09:42:18.724Z,8.00
2023-05-20T09:44:50.883Z,9.40
2023-05-20T09:47:22.767Z,10.87
2023-05-20T09:50:03.938Z,8.33
2023-05-20T09:52:32.481Z,8.87
2023-05-20T09:55:06.313Z,8.20
2023-05-20T09:57:37.515Z,11.10
2023-05-20T10:00:11.232Z,8.53
2023-05-20T10:02:45.706Z,12.07
2023-05-20T10:05:20.509Z,8.53
2023-05-20T10:08:12.879Z,8.37
2023-05-20T10:10:52.015Z,10.00
2023-05-20T10:13:41.966Z,9.40
2023-05-20T10:16:30.636Z,8.77
2023-05-20T10:19:12.045Z,9.57
2023-05-20T10:21:43.575Z,8.93
2023-05-20T10:24:13.734Z,8.67
2023-05-20T10:26:46.135Z,11.30
2023-05-20T10:29:19.466Z,9.97
2023-05-20T10:31:51.148Z,8.40
2023-05-20T10:34:26.024Z,8.57
2023-05-20T10:37:00.935Z,8.37
2023-05-20T10:39:32.731Z,8.33
2023-05-20T10:42:16.324Z,8.43
2023-05-20T10:45:13.211Z,10.70
2023-05-20T10:47:54.750Z,8.00
2023-05-20T10:50:31.587Z,8.50
2023-05-20T10:53:34.396Z,10.60
2023-05-20T10:56:04.070Z,11.07
2023-05-20T10:58:41.923Z,8.97
2023-05-20T11:01:12.629Z,8.50
2023-05-20T11:03:45.085Z,8.37
2023-05-20T11:06:18.228Z,8.47
2023-05-20T11:08:47.858Z,9.20
2023-05-20T11:11:20.574Z,7.30
2023-05-20T11:13:52.336Z,8.13
2023-05-20T11:16:23.582Z,8.00
2023-05-20T11:18:53.678Z,8.37
2023-05-20T11:21:28.604Z,9.07
2023-05-20T11:23:59.734Z,7.83
2023-05-20T11:26:28.307Z,7.30
2023-05-20T11:29:01.439Z,8.30
2023-05-20T11:31:30.079Z,8.27
2023-05-20T11:33:58.172Z,7.73
2023-05-20T11:36:28.892Z,7.80
2023-05-20T11:38:58.973Z,7.27
2023-05-20T11:41:28.638Z,7.90
2023-05-20T11:43:59.641Z,12.13
2023-05-20T11:46:29.434Z,8.67
2023-05-20T11:49:12.416Z,9.27
2023-05-20T11:51:46.236Z,8.30
2023-05-20T11:54:15.581Z,8.90
2023-05-20T11:56:46.252Z,9.73
2023-05-20T11:59:21.027Z,12.07
2023-05-20T12:01:49.628Z,8.77
2023-05-20T12:04:18.512Z,9.63
2023-05-20T12:06:48.366Z,8.53
2023-05-20T12:09:18.620Z,10.70
2023-05-20T12:11:48.171Z,8.03
2023-05-20T12:14:16.593Z,8.63
2023-05-20T12:16:46.724Z,7.73
2023-05-20T12:19:16.647Z,8.20
2023-05-20T12:21:47.264Z,9.00
2023-05-20T12:24:17.796Z,9.60
2023-05-20T12:26:46.445Z,8.20
2023-05-20T12:29:14.558Z,9.60
2023-05-20T12:31:43.535Z,8.20
2023-05-20T12:34:14.373Z,8.83
2023-05-20T12:36:51.545Z,10.40
2023-05-20T12:39:23.566Z,8.47
2023-05-20T12:41:52.175Z,9.70
2023-05-20T12:44:25.517Z,9.23
2023-05-20T12:46:53.574Z,9.80
2023-05-20T12:49:21.934Z,8.70
2023-05-20T12:51:50.238Z,8.30
2023-05-20T12:54:28.593Z,9.73
2023-05-20T12:56:59.489Z,9.47
2023-05-20T12:59:29.340Z,8.97
2023-05-20T13:01:57.709Z,8.80
2023-05-20T13:04:29.900Z,10.30
2023-05-20T13:06:59.212Z,10.50
2023-05-20T13:09:28.989Z,13.00
2023-05-20T13:11:58.690Z,9.90
2023-05-20T13:14:33.188Z,10.10
2023-05-20T13:17:01.264Z,9.50
2023-05-20T13:19:30.811Z,11.43
2023-05-20T13:22:00.038Z,10.73
2023-05-20T13:24:31.003Z,9.13
2023-05-20T13:27:01.382Z,13.70
2023-05-20T13:29:32.518Z,9.63
2023-05-20T13:32:03.136Z,9.43
2023-05-20T13:34:37.841Z,9.53
2023-05-20T13:37:07.227Z,11.80
2023-05-20T13:39:37.555Z,8.97
2023-05-20T13:42:10.167Z,9.67
2023-05-20T13:44:42.015Z,12.73
2023-05-20T13:47:10.492Z,9.17
2023-05-20T13:49:40.551Z,9.90
2023-05-20T13:52:12.849Z,8.97
2023-05-20T13:54:46.683Z,13.47
2023-05-20T13:57:15.285Z,10.03
2023-05-20T13:59:46.949Z,9.43
2023-05-20T14:02:15.810Z,9.57
2023-05-20T14:04:45.573Z,8.30
2023-05-20T14:07:14.734Z,10.45
2023-05-20T14:09:44.541Z,8.27
2023-05-20T14:12:14.374Z,9.32
2023-05-20T14:14:44.105Z,8.90
2023-05-20T14:17:12.745Z,8.38
2023-05-20T14:19:41.963Z,9.20
2023-05-20T14:22:14.952Z,8.82
2023-05-20T14:24:58.075Z,10.15
2023-05-20T14:27:25.996Z,9.93
2023-05-20T14:29:56.759Z,9.83
2023-05-20T14:32:25.152Z,8.65
2023-05-20T14:34:56.970Z,9.27
2023-05-20T14:37:27.220Z,10.10
2023-05-20T14:39:57.326Z,8.30
2023-05-20T14:42:26.526Z,9.73
2023-05-20T14:44:54.879Z,11.93
2023-05-20T14:47:23.988Z,8.38
2023-05-20T14:49:52.768Z,8.13
2023-05-20T14:52:21.259Z,9.13
2023-05-20T14:54:51.078Z,8.82
2023-05-20T14:57:21.716Z,10.45
2023-05-20T14:59:54.234Z,8.48
2023-05-20T15:03:01.475Z,10.23
2023-05-20T15:05:29.602Z,9.23
2023-05-20T15:08:14.118Z,8.73
2023-05-20T15:10:42.762Z,9.77
2023-05-20T15:13:18.769Z,9.80
2023-05-20T15:15:49.971Z,8.13
2023-05-20T15:18:19.158Z,8.10
2023-05-20T15:20:47.893Z,8.35
2023-05-20T15:23:24.091Z,9.23
2023-05-20T15:25:55.685Z,9.00
2023-05-20T15:28:27.244Z,8.10
2023-05-20T15:31:07.334Z,8.70
2023-05-20T15:33:47.940Z,8.45
2023-05-20T15:36:19.228Z,8.45
2023-05-20T15:38:47.614Z,7.88
2023-05-20T15:41:23.881Z,8.65
2023-05-20T15:44:06.308Z,8.40
2023-05-20T15:46:37.857Z,8.88
2023-05-20T15:49:07.646Z,7.97
2023-05-20T15:51:38.331Z,8.23
2023-05-20T15:54:14.413Z,9.23
2023-05-20T15:56:49.185Z,10.50
2023-05-20T15:59:37.566Z,8.15
2023-05-20T16:02:10.031Z,8.68
2023-05-20T16:04:41.989Z,14.80
2023-05-20T16:07:24.693Z,8.50
2023-05-20T16:09:54.077Z,9.15
2023-05-20T16:12:26.101Z,9.23
2023-05-20T16:15:01.790Z,8.43
2023-05-20T16:17:32.270Z,9.33
2023-05-20T16:20:12.974Z,9.23
2023-05-20T16:22:55.881Z,10.93
2023-05-20T16:25:26.389Z,9.27
2023-05-20T16:27:59.559Z,9.07
2023-05-20T16:30:31.664Z,12.03
2023-05-20T16:33:00.337Z,9.97
2023-05-20T16:35:31.114Z,9.90
2023-05-20T16:38:03.058Z,10.33
2023-05-20T16:40:34.427Z,12.07
2023-05-20T16:43:04.389Z,9.17
2023-05-20T16:45:35.608Z,12.70
2023-05-20T16:48:05.579Z,9.80
2023-05-20T16:50:40.587Z,10.47
2023-05-20T16:53:11.037Z,10.30
2023-05-20T16:55:44.131Z,9.90
2023-05-20T16:58:40.146Z,12.90
2023-05-20T17:01:11.112Z,11.07
2023-05-20T17:03:44.611Z,10.33
2023-05-20T17:06:13.406Z,10.83
2023-05-20T17:08:43.585Z,10.20
2023-05-20T17:11:14.635Z,11.80
2023-05-20T17:13:45.718Z,11.53
2023-05-20T17:16:16.972Z,10.37
2023-05-20T17:18:46.430Z,12.73
2023-05-20T17:21:15.824Z,11.60
2023-05-20T17:26:37.262Z,11.30
2023-05-20T17:29:05.805Z,11.13
2023-05-20T17:31:36.130Z,12.10
2023-05-20T17:34:11.352Z,12.13
2023-05-20T17:36:43.372Z,11.97
2023-05-20T17:39:19.755Z,11.63
2023-05-20T17:41:54.833Z,12.97
2023-05-20T17:44:25.141Z,12.27
2023-05-20T17:47:03.224Z,13.27
2023-05-20T17:49:32.874Z,13.73
2023-05-20T17:52:04.612Z,13.53
2023-05-20T17:54:37.318Z,12.70
2023-05-20T17:57:08.901Z,12.73
2023-05-20T17:59:45.712Z,12.33
2023-05-20T18:02:17.187Z,13.83
2023-05-20T18:04:47.821Z,12.83
2023-05-20T18:07:19.253Z,13.53
2023-05-20T18:09:48.269Z,14.10
2023-05-20T18:12:46.384Z,14.13
2023-05-20T18:15:17.934Z,13.47
2023-05-20T18:17:58.976Z,13.90
2023-05-20T18:20:28.993Z,14.33
2023-05-20T18:22:59.503Z,15.77
2023-05-20T18:25:27.776Z,18.03
2023-05-20T18:27:59.330Z,13.93
2023-05-20T18:30:30.707Z,21.50
2023-05-20T18:33:08.588Z,14.33
2023-05-20T18:35:39.448Z,15.43
2023-05-20T18:38:11.004Z,16.03
2023-05-20T18:40:39.351Z,16.47
2023-05-20T18:43:10.895Z,14.50
2023-05-20T18:45:40.807Z,15.80
2023-05-20T18:48:26.552Z,15.37
2023-05-20T18:50:58.520Z,14.90
2023-05-20T18:53:31.627Z,16.53
2023-05-20T18:56:13.568Z,18.17
2023-05-20T18:59:10.956Z,15.73
2023-05-20T19:01:40.484Z,17.30
2023-05-20T19:04:13.703Z,18.80
2023-05-20T19:06:46.276Z,17.27
2023-05-20T19:09:29.353Z,15.70
2023-05-20T19:12:23.012Z,17.33
2023-05-20T19:15:04.144Z,20.03
2023-05-20T19:17:42.332Z,16.27
2023-05-20T19:20:22.955Z,14.87
2023-05-20T19:22:55.133Z,17.60
2023-05-20T19:25:23.856Z,16.87
2023-05-20T19:27:57.163Z,15.97
2023-05-20T19:30:37.989Z,19.27
2023-05-20T19:33:07.075Z,17.63
2023-05-20T19:35:39.307Z,16.63
2023-05-20T19:40:53.656Z,19.03
2023-05-20T19:43:26.243Z,18.50
2023-05-20T19:46:03.227Z,18.73
2023-05-20T19:48:31.953Z,17.63
2023-05-20T19:51:04.722Z,19.57
2023-05-20T19:53:32.687Z,17.67
2023-05-20T19:56:02.651Z,17.70
2023-05-20T19:58:34.168Z,21.37
2023-05-20T20:01:06.729Z,18.10
2023-05-20T20:03:38.223Z,17.73
2023-05-20T20:06:11.504Z,20.67
2023-05-20T20:08:43.915Z,17.57
2023-05-20T20:11:15.147Z,17.10
2023-05-20T20:13:46.364Z,17.03
2023-05-20T20:16:27.226Z,19.57
2023-05-20T20:18:57.374Z,19.30
2023-05-20T20:21:31.133Z,16.77
2023-05-20T20:24:00.263Z,17.57
2023-05-20T20:26:32.249Z,21.73
2023-05-20T20:29:03.842Z,17.10
2023-05-20T20:31:32.710Z,17.40
2023-05-20T20:34:01.794Z,18.70
2023-05-20T20:36:32.161Z,24.37
2023-05-20T20:39:02.825Z,17.57
2023-05-20T20:41:33.010Z,17.87
2023-05-20T20:44:03.477Z,18.03
2023-05-20T20:46:41.864Z,16.93
2023-05-20T20:49:15.519Z,19.70
2023-05-20T20:51:46.357Z,19.00
2023-05-20T20:54:15.940Z,18.27
2023-05-20T20:56:50.073Z,17.00
2023-05-20T20:59:26.226Z,20.30
2023-05-20T21:01:57.844Z,18.33
2023-05-20T21:04:30.133Z,19.80
2023-05-20T21:07:02.135Z,16.67
2023-05-20T21:09:37.390Z,17.67
2023-05-20T21:12:10.215Z,19.50
2023-05-20T21:14:39.854Z,19.83
2023-05-20T21:17:09.500Z,17.93
2023-05-20T21:19:40.857Z,19.13
2023-05-20T21:22:15.112Z,17.27
2023-05-20T21:24:45.655Z,17.80
2023-05-20T21:27:17.177Z,19.20
2023-05-20T21:29:53.724Z,18.13
2023-05-20T21:32:23.958Z,19.97
2023-05-20T21:35:02.085Z,19.87
2023-05-20T21:37:38.434Z,19.40
2023-05-20T21:40:10.559Z,18.23
2023-05-20T21:42:42.086Z,16.47
2023-05-20T21:45:13.820Z,18.03
2023-05-20T21:47:49.290Z,18.10
2023-05-20T21:50:20.317Z,17.13
2023-05-20T21:52:57.922Z,16.03
2023-05-20T21:55:26.221Z,18.33
2023-05-20T21:58:06.692Z,22.13
2023-05-20T22:00:36.749Z,19.00
2023-05-20T22:03:09.888Z,18.13
2023-05-20T22:05:40.102Z,18.17
2023-05-20T22:08:13.992Z,19.23
2023-05-20T22:10:53.392Z,17.00
2023-05-20T22:13:26.574Z,18.03
2023-05-20T22:15:58.709Z,17.40
2023-05-20T22:18:32.902Z,16.90
2023-05-20T22:21:10.254Z,18.03
2023-05-20T22:23:44.257Z,18.90
2023-05-20T22:26:20.025Z,16.40
2023-05-20T22:28:48.851Z,16.83
2023-05-20T22:31:27.957Z,19.50
2023-05-20T22:33:59.231Z,17.60
2023-05-20T22:36:36.318Z,18.30
2023-05-20T22:39:10.602Z,15.70
2023-05-20T22:41:41.730Z,16.07
2023-05-20T22:44:24.791Z,16.67
2023-05-20T22:46:54.012Z,17.30
2023-05-20T22:49:27.016Z,19.37
2023-05-20T22:52:00.304Z,18.90
2023-05-20T22:54:31.034Z,16.20
2023-05-20T22:57:03.203Z,19.23
2023-05-20T22:59:36.893Z,15.67
2023-05-20T23:02:09.222Z,16.77
2023-05-20T23:04:41.751Z,16.50
2023-05-20T23:07:14.703Z,16.80
2023-05-20T23:09:44.407Z,16.83
2023-05-20T23:12:13.090Z,17.00
2023-05-20T23:14:45.258Z,22.30
2023-05-20T23:17:18.294Z,22.50
2023-05-20T23:19:49.199Z,17.37
2023-05-20T23:22:23.760Z,17.83
2023-05-20T23:24:58.583Z,17.00
2023-05-20T23:27:28.777Z,18.03
2023-05-20T23:29:57.285Z,14.83
2023-05-20T23:32:32.289Z,20.70
2023-05-20T23:35:03.498Z,19.73
2023-05-20T23:37:34.747Z,17.27
2023-05-20T23:40:11.324Z,16.33
2023-05-20T23:42:44.117Z,19.90
2023-05-20T23:45:16.256Z,19.50
2023-05-20T23:47:58.693Z,16.77
2023-05-20T23:50:27.989Z,22.67
2023-05-20T23:52:59.514Z,19.93
2023-05-20T23:55:29.882Z,16.37
2023-05-20T23:58:06.929Z,16.23
